WetterOnline ( https://www.wetteronline.de )

Wetter aktuell Danzig

Aktuelles Wetter: Hel (3m)

6-stündlich | Neueste Meldungen
Ortszeit Temperatur Wetter
Mo, 30.11. 13:00 4.9° C bewölkt
Mo, 30.11. 7:00 3.1° C bewölkt
Mo, 30.11. 1:00 1.8° C bewölkt
So, 29.11. 19:00 2.7° C bewölkt
So, 29.11. 13:00 4.2° C leicht bewölkt
So, 29.11. 7:00 3.6° C bewölkt
So, 29.11. 1:00 4.3° C wolkig
Sa, 28.11. 19:00 5.2° C wolkig
Ortszeit Temperatur Wetter
Mo, 30.11. 18:00 4.2° C bewölkt
Mo, 30.11. 17:00 4.3° C bewölkt
Mo, 30.11. 16:00 4.1° C wolkig
Mo, 30.11. 15:00 4.4° C leicht bewölkt
Mo, 30.11. 14:00 4.5° C bewölkt
Mo, 30.11. 13:00 4.9° C bewölkt
Ortszeit Relative Feuchte Sichtweite
Mo, 30.11. 13:00 82% 25 km
Mo, 30.11. 7:00 93% 25 km
Mo, 30.11. 1:00 95% 25 km
So, 29.11. 19:00 94% 30 km
So, 29.11. 13:00 71% 30 km
So, 29.11. 7:00 82% 25 km
So, 29.11. 1:00 89% 25 km
Sa, 28.11. 19:00 89% 20 km
Ortszeit Relative Feuchte Sichtweite
Mo, 30.11. 18:00 83% 20 km
Mo, 30.11. 17:00 85% 20 km
Mo, 30.11. 16:00 83% 25 km
Mo, 30.11. 15:00 84% 25 km
Mo, 30.11. 14:00 84% 25 km
Mo, 30.11. 13:00 82% 25 km
Ortszeit Niederschlagsmenge Niederschlagsart
Mo, 30.11. 13:00 0.0 l/m2 in 6 Std. -
Mo, 30.11. 7:00 4 l/m2 in 12 Std. Schauer
Mo, 30.11. 1:00 3 l/m2 in 6 Std. Schauer
So, 29.11. 19:00 0.1 l/m2 in 12 Std. Schauer
So, 29.11. 13:00 0.1 l/m2 in 6 Std. Schauer
So, 29.11. 7:00 2 l/m2 in 12 Std. Schauer
So, 29.11. 1:00 0.5 l/m2 in 6 Std. Schauer
Sa, 28.11. 19:00 0.7 l/m2 in 12 Std. Schauer
Ortszeit Niederschlagsmenge Niederschlagsart
Mo, 30.11. 18:00 keine Meldung -
Mo, 30.11. 17:00 keine Meldung -
Mo, 30.11. 16:00 keine Meldung -
Mo, 30.11. 15:00 keine Meldung -
Mo, 30.11. 14:00 keine Meldung -
Mo, 30.11. 13:00 keine Meldung -
Ortszeit Stärke Spitze Richtung
km/h Bft. km/h Grad Sektor
Mo, 30.11. 13:00 11 2 32 230° SW
Mo, 30.11. 7:00 7 2 - 350° N
Mo, 30.11. 1:00 11 2 32 290° W
So, 29.11. 19:00 11 2 - 260° W
So, 29.11. 13:00 11 2 40 110° O
So, 29.11. 7:00 14 3 36 80° O
So, 29.11. 1:00 11 2 40 20° N
Sa, 28.11. 19:00 14 3 40 30° NO
Ortszeit Stärke Spitze Richtung
km/h Bft. km/h Grad Sektor
Mo, 30.11. 18:00 14 3 - 240° SW
Mo, 30.11. 17:00 14 3 - 260° W
Mo, 30.11. 16:00 14 3 - 250° W
Mo, 30.11. 15:00 14 3 - 260° W
Mo, 30.11. 14:00 14 3 - 250° W
Mo, 30.11. 13:00 11 2 32 230° SW
Ortszeit Untergrenze Bedeckung Gattung
total tief tief mittel hoch
Mo, 30.11. 13:00 390 m 7/8 7/8 Cu - -
Mo, 30.11. 7:00 - 7/8 7/8 Sc - -
Mo, 30.11. 1:00 300 m 7/8 7/8 Cu - -
So, 29.11. 19:00 - 7/8 7/8 Cu - -
So, 29.11. 13:00 - 4/8 4/8 Cu - -
So, 29.11. 7:00 - 7/8 7/8 Cu - -
So, 29.11. 1:00 - 6/8 6/8 Cb - -
Sa, 28.11. 19:00 - 6/8 6/8 Cb - -
Ortszeit Bedeckungsgrad in Achtel und Wolkenuntergrenze
Mo, 30.11. 18:00 3(420m)
Mo, 30.11. 17:00 7
Mo, 30.11. 16:00 5
Mo, 30.11. 15:00 2(420m)
Mo, 30.11. 14:00 2(390m)
Mo, 30.11. 13:00 1(390m)
Ortszeit Luftdruck NN (hPa) Tendenz (hPa in 3 Std.)
Mo, 30.11. 13:00 1021 - 0,9
Mo, 30.11. 7:00 1022 0,0
Mo, 30.11. 1:00 1023 - 0,6
So, 29.11. 19:00 1024 - 0,3
So, 29.11. 13:00 1024 - 0,6
So, 29.11. 7:00 1024 + 0,4
So, 29.11. 1:00 1023 - 0,4
Sa, 28.11. 19:00 1024 0,0
Ortszeit Luftdruck NN (hPa) Tendenz (hPa in 3 Std.)
Mo, 30.11. 18:00 1020 - 0,3
Mo, 30.11. 17:00 1020 - 0,4
Mo, 30.11. 16:00 1020 - 0,5
Mo, 30.11. 15:00 1021 - 0,8
Mo, 30.11. 14:00 1021 - 1,0
Mo, 30.11. 13:00 1021 - 0,9
Ortszeit Schneehöhe (cm)
Mo, 30.11. 13:00 -
Mo, 30.11. 7:00 -
Mo, 30.11. 1:00 -
So, 29.11. 19:00 -
So, 29.11. 13:00 -
So, 29.11. 7:00 -
So, 29.11. 1:00 -
Sa, 28.11. 19:00 -
Ortszeit Schneehöhe (cm)
Mo, 30.11. 18:00 -
Mo, 30.11. 17:00 -
Mo, 30.11. 16:00 -
Mo, 30.11. 15:00 -
Mo, 30.11. 14:00 -
Mo, 30.11. 13:00 -
Link zu dieser Seite / Seite empfehlen

Das Wetter in ...